หน้าหลัก
METAR-TAF:

METAR-TAF

ท่าอากาศยาน :

โกนากรี, กินี

ละติจูด: 09-34N, ลองจิจูด: 013-37W, ความสูง: 26 ม.

การสังเกตสภาพอากาศปัจจุบัน

รายงานได้ทำขึ้นเมื่อ 44 นาทีที่แล้ว ณ เวลา 09:00 UTC
ลม 4 นอตจากตะวันออก
อุณหภูมิ 26°C
ความชื้น 94%
ความกดอากาศ 1012 hPa
ทัศนวิสัย: 3000 ม.
มีเมฆกระจายเป็นบางส่วนที่ความสูง 1500 ฟุต
หมอกน้ำค้าง,

METAR: GUCY 250900Z 08004KT 3000 BR SCT015 26/25 Q1012 NOSIG

เวลา: 09:44 (09:44 UTC)

การพยากรณ์

รายงานได้ทำขึ้นเมื่อ 4 ชั่วโมงและ 44 นาทีที่แล้ว ณ เวลา 05:00 UTC
การพยากรณ์มีผลตั้งแต่วันที่ 25 ณ เวลา 06 UTC จนถึงวันที่ 26 ณ เวลา 12 UTC
ลม 6 นอตจากตะวันตก/ตะวันตกเฉียงเหนือ
ทัศนวิสัย: 5000 ม.
มีเมฆน้อยที่ความสูง 1500 ฟุต
เมฆหมอก
กำลังกลายเป็น
ตั้งแต่วันที่ 25 ณ เวลา 06 UTC จนถึงวันที่ 25 ณ เวลา 10 UTC
ลม 6 นอตจากตะวันออก/ตะวันออกเฉียงเหนือ
ทัศนวิสัย: 3000 ม.
มีเมฆกระจายเป็นบางส่วนที่ความสูง 11000 ฟุต
หมอกน้ำค้าง,

TAF: GUCY 250500Z 2506/2612 29006KT 5000 HZ FEW015 BECMG 2506/2510 07006KT 3000 BR SCT110

สังเกตการณ์สภาพอากาศและพยากรณ์อากาศของสนามบินมากกว่า 4000 แห่ง (รายงาน METAR และ TAF).

สถานีที่ดูได้จะแสดงไว้ด้วยจุดสีเหลืองและสีแดงบนแผนที่.

เลื่อนเมาส์ไปเหนือจุดเพื่อดูชื่อสถานี.

แล้วคลิกเพื่อดูสังเกตการณ์และการพยากรณ์สภาพอากาศ.

ในการเปลี่ยนแผนที่: คลิกที่ปุ่มสีเขียวที่มีกากบาทสีดำเพื่อซูมเข้า; ที่ปุ่มสีเขียวที่มีขีดเพื่อซูมออก; หรือที่ลูกศรสีเขียวเพื่อไปยังแผนที่ที่อยู่ติดกัน.


METAR-TAF: